Time;durP1;ratioP1;P1;durP2;ratioP2;P2;SDS_P1;SDS_P2;PMS_P1;PMS_P2;Temp;Humidity;BMP_temperature;BMP_pressure;BME280_temperature;BME280_humidity;BME280_pressure;Samples;Min_cycle;Max_cycle;Signal;HPM_P1;HPM_P2
2024/01/16 00:01:52;;;;;;;6.50;6.30;;;;;;;-145.48;100.00;64539.38;6271423;28;20036;-91
2024/01/16 00:04:54;;;;;;;5.57;5.38;;;;;;;-145.48;100.00;64539.38;6279319;28;20071;-91
2024/01/16 00:07:59;;;;;;;6.38;6.18;;;;;;;-145.48;100.00;64539.38;6283496;28;20045;-92
2024/01/16 00:11:03;;;;;;;6.25;6.05;;;;;;;-145.48;100.00;64539.38;6286514;28;20190;-93
2024/01/16 00:14:06;;;;;;;7.15;6.22;;;;;;;-145.48;100.00;64539.38;6288679;28;20490;-92
2024/01/16 00:17:08;;;;;;;6.25;5.95;;;;;;;-145.48;100.00;64539.38;6280701;28;20036;-92
2024/01/16 00:20:10;;;;;;;5.82;5.63;;;;;;;-145.48;100.00;64539.38;6283664;28;20151;-91
2024/01/16 00:23:13;;;;;;;6.13;5.93;;;;;;;-145.48;100.00;64539.38;6277381;28;20037;-92
2024/01/16 00:26:23;;;;;;;5.50;5.30;;;;;;;-145.48;100.00;64539.38;6284143;28;20442;-92
2024/01/16 00:29:25;;;;;;;5.40;5.20;;;;;;;-145.48;100.00;64539.38;6285366;28;20511;-92
2024/01/16 00:32:27;;;;;;;6.80;6.50;;;;;;;-145.48;100.00;64539.38;6265401;28;20045;-91
2024/01/16 00:35:30;;;;;;;5.95;5.75;;;;;;;-145.48;100.00;64539.38;6282437;28;20450;-93
2024/01/16 00:38:38;;;;;;;6.60;6.25;;;;;;;-145.48;100.00;64539.38;6281282;28;20341;-91
2024/01/16 00:41:40;;;;;;;6.65;6.35;;;;;;;-145.48;100.00;64539.38;6274421;28;20533;-93
2024/01/16 00:44:42;;;;;;;6.35;6.15;;;;;;;-145.48;100.00;64539.38;6274632;28;20505;-92
2024/01/16 00:47:44;;;;;;;6.35;6.13;;;;;;;-145.48;100.00;64539.38;6279789;28;20045;-92
2024/01/16 00:50:49;;;;;;;6.03;5.82;;;;;;;-145.48;100.00;64539.38;6281613;28;20155;-92
2024/01/16 00:53:51;;;;;;;6.68;6.45;;;;;;;-145.48;100.00;64539.38;6287026;28;20052;-92
2024/01/16 00:56:59;;;;;;;5.85;5.57;;;;;;;-145.48;100.00;64539.38;6282611;28;20089;-92
2024/01/16 01:00:01;;;;;;;6.03;5.82;;;;;;;-145.48;100.00;64539.38;6275370;28;20517;-91
2024/01/16 01:03:04;;;;;;;5.35;5.15;;;;;;;-145.48;100.00;64539.38;6284102;28;20041;-92
2024/01/16 01:06:06;;;;;;;5.75;5.55;;;;;;;-145.48;100.00;64539.38;6287837;28;20075;-92
2024/01/16 01:09:10;;;;;;;6.68;6.47;;;;;;;-145.48;100.00;64539.38;6279039;28;20036;-91
2024/01/16 01:12:15;;;;;;;6.05;5.85;;;;;;;-145.48;100.00;64539.38;6284255;28;20061;-93
2024/01/16 01:15:17;;;;;;;5.97;5.68;;;;;;;-145.48;100.00;64539.38;6261573;28;20098;-93
2024/01/16 01:18:20;;;;;;;7.20;6.70;;;;;;;-145.48;100.00;64539.38;6283408;28;20037;-93
2024/01/16 01:21:23;;;;;;;6.22;6.03;;;;;;;-145.48;100.00;64539.38;6280378;28;20048;-92
2024/01/16 01:24:26;;;;;;;16.88;5.95;;;;;;;-145.48;100.00;64539.38;6288453;28;20185;-92
2024/01/16 01:27:27;;;;;;;6.05;5.85;;;;;;;-145.48;100.00;64539.38;6283955;28;20388;-92
2024/01/16 01:30:29;;;;;;;5.65;5.45;;;;;;;-145.48;100.00;64539.38;6277888;28;20037;-91
2024/01/16 01:33:32;;;;;;;6.15;5.95;;;;;;;-145.48;100.00;64539.38;6284443;28;20052;-92
2024/01/16 01:36:34;;;;;;;6.10;5.90;;;;;;;-145.48;100.00;64539.38;6272575;28;20123;-93
2024/01/16 01:39:36;;;;;;;7.85;6.22;;;;;;;-145.48;100.00;64539.38;6270561;28;20041;-91
2024/01/16 01:42:40;;;;;;;6.22;6.03;;;;;;;-145.48;100.00;64539.38;6278971;28;20037;-92
2024/01/16 01:45:42;;;;;;;6.80;6.22;;;;;;;-145.48;100.00;64539.38;6282724;28;20131;-92
2024/01/16 01:48:50;;;;;;;6.00;5.80;;;;;;;-145.48;100.00;64539.38;6287219;28;20053;-92
2024/01/16 01:51:53;;;;;;;6.13;5.93;;;;;;;-145.48;100.00;64539.38;6272590;28;20119;-93
2024/01/16 01:54:55;;;;;;;6.85;6.55;;;;;;;-145.48;100.00;64539.38;6267307;28;20123;-92
2024/01/16 01:57:57;;;;;;;5.63;5.43;;;;;;;-145.48;100.00;64539.38;6285851;28;20052;-91
2024/01/16 02:01:02;;;;;;;5.85;5.65;;;;;;;-145.48;100.00;64539.38;6280601;28;20045;-90
2024/01/16 02:04:05;;;;;;;5.78;5.57;;;;;;;-145.48;100.00;64539.38;6282141;28;20029;-92
2024/01/16 02:07:08;;;;;;;5.40;5.20;;;;;;;-145.48;100.00;64539.38;6277812;28;20449;-92
2024/01/16 02:10:10;;;;;;;5.57;5.38;;;;;;;-145.48;100.00;64539.38;6280489;28;20041;-92
2024/01/16 02:13:23;;;;;;;7.20;6.90;;;;;;;-145.48;100.00;64539.38;6280590;28;20162;-92
2024/01/16 02:16:25;;;;;;;5.63;5.43;;;;;;;-145.48;100.00;64539.38;6277885;28;20052;-92
2024/01/16 02:19:27;;;;;;;5.88;5.57;;;;;;;-145.48;100.00;64539.38;6282749;28;20040;-92
2024/01/16 02:22:33;;;;;;;5.95;5.75;;;;;;;-145.48;100.00;64539.38;6277304;28;20032;-91
2024/01/16 02:25:35;;;;;;;6.35;6.07;;;;;;;-145.48;100.00;64539.38;6284155;28;20052;-92
2024/01/16 02:28:37;;;;;;;6.25;5.95;;;;;;;-145.48;100.00;64539.38;6277152;28;20563;-92
2024/01/16 02:31:41;;;;;;;8.02;6.18;;;;;;;-145.48;100.00;64539.38;6281373;28;20035;-93
2024/01/16 02:34:43;;;;;;;6.65;6.35;;;;;;;-145.48;100.00;64539.38;6281961;28;20426;-91
2024/01/16 02:37:45;;;;;;;5.53;5.32;;;;;;;-145.48;100.00;64539.38;6283583;28;20066;-91
2024/01/16 02:40:47;;;;;;;5.88;5.68;;;;;;;-145.48;100.00;64539.38;6275349;28;20037;-92
2024/01/16 02:43:49;;;;;;;5.40;5.20;;;;;;;-145.48;100.00;64539.38;6274042;28;20429;-92
2024/01/16 02:46:51;;;;;;;6.20;5.90;;;;;;;-145.48;100.00;64539.38;6274453;28;20490;-91
2024/01/16 02:49:53;;;;;;;5.65;5.45;;;;;;;-145.48;100.00;64539.38;6277265;28;20044;-92
2024/01/16 02:52:55;;;;;;;6.55;6.35;;;;;;;-145.48;100.00;64539.38;6284587;28;20041;-93
2024/01/16 02:56:00;;;;;;;6.03;5.82;;;;;;;-145.48;100.00;64539.38;6283079;28;20491;-92
2024/01/16 02:59:02;;;;;;;6.32;6.13;;;;;;;-145.48;100.00;64539.38;6297670;28;20486;-93
2024/01/16 03:02:05;;;;;;;5.72;5.53;;;;;;;-145.48;100.00;64539.38;6273534;28;20041;-92
2024/01/16 03:05:07;;;;;;;6.05;5.85;;;;;;;-145.48;100.00;64539.38;6267552;28;20558;-92
2024/01/16 03:08:09;;;;;;;5.28;5.07;;;;;;;-145.48;100.00;64539.38;6281692;28;20037;-91
2024/01/16 03:11:11;;;;;;;6.20;5.88;;;;;;;-145.48;100.00;64539.38;6273483;28;20048;-92
2024/01/16 03:14:13;;;;;;;5.93;5.63;;;;;;;-145.48;100.00;64539.38;6287396;28;20520;-93
2024/01/16 03:17:15;;;;;;;5.85;5.65;;;;;;;-145.48;100.00;64539.38;6281407;28;20037;-94
2024/01/16 03:20:22;;;;;;;6.57;6.30;;;;;;;-145.48;100.00;64539.38;6287567;28;20166;-93
2024/01/16 03:23:24;;;;;;;5.88;5.68;;;;;;;-145.48;100.00;64539.38;6286277;28;20143;-92
2024/01/16 03:26:26;;;;;;;5.82;5.63;;;;;;;-145.48;100.00;64539.38;6274430;28;20146;-93
2024/01/16 03:29:29;;;;;;;5.65;5.45;;;;;;;-145.48;100.00;64539.38;6281645;28;20040;-93
2024/01/16 03:32:31;;;;;;;5.50;5.30;;;;;;;-145.48;100.00;64539.38;6265873;28;20577;-94
2024/01/16 03:35:33;;;;;;;6.65;6.18;;;;;;;-145.48;100.00;64539.38;6269960;28;20036;-94
2024/01/16 03:38:41;;;;;;;5.78;5.57;;;;;;;-145.48;100.00;64539.38;6279004;28;20366;-93
2024/01/16 03:41:43;;;;;;;6.15;5.95;;;;;;;-145.48;100.00;64539.38;6284393;28;20045;-93
2024/01/16 03:44:46;;;;;;;6.65;6.35;;;;;;;-145.48;100.00;64539.38;6274616;28;20068;-92
2024/01/16 03:47:50;;;;;;;7.45;6.82;;;;;;;-145.48;100.00;64539.38;6287646;28;20041;-92
2024/01/16 03:50:54;;;;;;;6.25;6.00;;;;;;;-145.48;100.00;64539.38;6283920;28;20079;-93
2024/01/16 03:53:56;;;;;;;5.38;5.18;;;;;;;-145.48;100.00;64539.38;6284653;28;20589;-93
2024/01/16 03:56:58;;;;;;;5.47;5.25;;;;;;;-145.48;100.00;64539.38;6290787;28;20133;-92
2024/01/16 04:00:01;;;;;;;5.53;5.32;;;;;;;-145.48;100.00;64539.38;6283456;28;20048;-93
2024/01/16 04:03:07;;;;;;;5.60;5.40;;;;;;;-145.48;100.00;64539.38;6285015;28;20536;-92
2024/01/16 04:06:18;;;;;;;7.40;6.70;;;;;;;-145.48;100.00;64539.38;6288746;28;20037;-92
2024/01/16 04:09:20;;;;;;;6.25;6.05;;;;;;;-145.48;100.00;64539.38;6278981;28;20048;-92
2024/01/16 04:12:22;;;;;;;5.93;5.72;;;;;;;-145.48;100.00;64539.38;6296087;28;20150;-92
2024/01/16 04:15:24;;;;;;;5.82;5.40;;;;;;;-145.48;100.00;64539.38;6290414;28;20093;-93
2024/01/16 04:18:26;;;;;;;8.90;5.97;;;;;;;-145.48;100.00;64539.38;6284299;28;20501;-93
2024/01/16 04:21:29;;;;;;;6.75;6.30;;;;;;;-145.48;100.00;64539.38;6291320;28;20045;-92
2024/01/16 04:24:30;;;;;;;6.20;6.00;;;;;;;-145.48;100.00;64539.38;6284262;28;20037;-92
2024/01/16 04:27:32;;;;;;;6.45;6.15;;;;;;;-145.48;100.00;64539.38;6287804;28;20422;-92
2024/01/16 04:30:34;;;;;;;6.07;5.88;;;;;;;-145.48;100.00;64539.38;6284045;28;20456;-92
2024/01/16 04:33:36;;;;;;;5.78;5.57;;;;;;;-145.48;100.00;64539.38;6277511;28;20052;-92
2024/01/16 04:36:38;;;;;;;5.88;5.68;;;;;;;-145.48;100.00;64539.38;6284930;28;20047;-92
2024/01/16 04:39:41;;;;;;;6.57;6.18;;;;;;;-145.48;100.00;64539.38;6278900;28;20033;-92
2024/01/16 04:42:43;;;;;;;5.70;5.43;;;;;;;-145.48;100.00;64539.38;6276297;28;20523;-92
2024/01/16 04:45:46;;;;;;;7.90;7.13;;;;;;;-145.48;100.00;64539.38;6269279;28;20117;-92
2024/01/16 04:48:48;;;;;;;5.30;5.10;;;;;;;-145.48;100.00;64539.38;6290517;28;20052;-93
2024/01/16 04:51:50;;;;;;;6.55;6.32;;;;;;;-145.48;100.00;64539.38;6276094;28;20402;-92
2024/01/16 04:54:52;;;;;;;5.68;5.47;;;;;;;-145.48;100.00;64539.38;6286331;28;20041;-92
2024/01/16 04:57:55;;;;;;;5.93;5.68;;;;;;;-145.48;100.00;64539.38;6281614;28;20075;-92
2024/01/16 05:00:58;;;;;;;5.68;5.47;;;;;;;-145.48;100.00;64539.38;6282897;28;20044;-92
2024/01/16 05:04:00;;;;;;;6.38;6.18;;;;;;;-145.48;100.00;64539.38;6273135;28;20498;-93
2024/01/16 05:07:04;;;;;;;5.88;5.68;;;;;;;-145.48;100.00;64539.38;6283134;28;20411;-93
2024/01/16 05:10:09;;;;;;;5.90;5.70;;;;;;;-145.48;100.00;64539.38;6286395;28;20495;-92
2024/01/16 05:13:12;;;;;;;6.97;5.93;;;;;;;-145.48;100.00;64539.38;6280388;28;20040;-92
2024/01/16 05:16:14;;;;;;;5.70;5.50;;;;;;;-145.48;100.00;64539.38;6284369;28;20422;-92
2024/01/16 05:19:19;;;;;;;5.35;5.15;;;;;;;-145.48;100.00;64539.38;6283974;28;20056;-92
2024/01/16 05:22:22;;;;;;;6.28;5.97;;;;;;;-145.48;100.00;64539.38;6283676;28;20044;-91
2024/01/16 05:25:24;;;;;;;5.63;5.43;;;;;;;-145.48;100.00;64539.38;6280641;28;20032;-92
2024/01/16 05:28:26;;;;;;;5.68;5.47;;;;;;;-145.48;100.00;64539.38;6289825;28;20429;-93
2024/01/16 05:31:28;;;;;;;5.13;5.03;;;;;;;-145.48;100.00;64539.38;6281682;28;20048;-93
2024/01/16 05:34:31;;;;;;;8.10;7.35;;;;;;;-145.48;100.00;64539.38;6283193;28;20040;-93
2024/01/16 05:37:33;;;;;;;6.00;5.72;;;;;;;-145.48;100.00;64539.38;6291819;28;20048;-93
2024/01/16 05:40:35;;;;;;;6.55;6.25;;;;;;;-145.48;100.00;64539.38;6281673;28;20490;-92
2024/01/16 05:43:37;;;;;;;6.05;5.85;;;;;;;-145.48;100.00;64539.38;6274726;28;20044;-93
2024/01/16 05:46:39;;;;;;;6.35;6.05;;;;;;;-145.48;100.00;64539.38;6273519;28;20550;-93
2024/01/16 05:49:42;;;;;;;5.95;5.68;;;;;;;-145.48;100.00;64539.38;6281779;28;20487;-92
2024/01/16 05:52:45;;;;;;;6.45;6.25;;;;;;;-145.48;100.00;64539.38;6278728;28;20045;-93
2024/01/16 05:55:48;;;;;;;7.40;6.80;;;;;;;-145.48;100.00;64539.38;6283434;28;20045;-93
2024/01/16 05:58:50;;;;;;;6.32;6.13;;;;;;;-145.48;100.00;64539.38;6280194;28;20048;-93
2024/01/16 06:01:52;;;;;;;5.75;5.53;;;;;;;-145.48;100.00;64539.38;6275584;28;20064;-94
2024/01/16 06:04:54;;;;;;;7.38;6.78;;;;;;;-145.48;100.00;64539.38;6286282;28;20486;-93
2024/01/16 06:07:59;;;;;;;5.38;5.18;;;;;;;-145.48;100.00;64539.38;6276959;28;20045;-94
2024/01/16 06:11:01;;;;;;;6.88;6.47;;;;;;;-145.48;100.00;64539.38;6284579;28;20042;-93
2024/01/16 06:14:03;;;;;;;5.63;5.35;;;;;;;-145.48;100.00;64539.38;6281777;28;20522;-93
2024/01/16 06:17:06;;;;;;;6.15;5.95;;;;;;;-145.48;100.00;64539.38;6285291;28;20057;-94
2024/01/16 06:20:08;;;;;;;6.63;5.68;;;;;;;-145.48;100.00;64539.38;6278801;28;20056;-94
2024/01/16 06:23:10;;;;;;;5.93;5.72;;;;;;;-145.48;100.00;64539.38;6288075;28;20047;-94
2024/01/16 06:26:12;;;;;;;6.22;6.03;;;;;;;-145.48;100.00;64539.38;6285219;28;20402;-94
2024/01/16 06:29:17;;;;;;;6.60;6.38;;;;;;;-145.48;100.00;64539.38;6287569;28;20036;-94
2024/01/16 06:32:35;;;;;;;6.13;5.85;;;;;;;-145.48;100.00;64539.38;6281894;28;20063;-94
2024/01/16 06:35:37;;;;;;;6.00;5.80;;;;;;;-145.48;100.00;64539.38;6281194;28;20036;-93
2024/01/16 06:38:40;;;;;;;5.78;5.57;;;;;;;-145.48;100.00;64539.38;6277768;28;20469;-93
2024/01/16 06:41:42;;;;;;;5.93;5.72;;;;;;;-145.48;100.00;64539.38;6284182;28;20087;-94
2024/01/16 06:44:45;;;;;;;6.43;6.22;;;;;;;-145.48;100.00;64539.38;6282942;28;20052;-94
2024/01/16 06:47:47;;;;;;;6.18;5.93;;;;;;;-145.48;100.00;64539.38;6272831;28;20118;-94
2024/01/16 06:50:52;;;;;;;6.10;5.80;;;;;;;-145.48;100.00;64539.38;6289221;28;20716;-95
2024/01/16 06:53:54;;;;;;;6.15;5.85;;;;;;;-145.48;100.00;64539.38;6282022;28;20052;-94
2024/01/16 06:56:59;;;;;;;6.68;6.28;;;;;;;-145.48;100.00;64539.38;6285040;28;20053;-94
2024/01/16 07:00:02;;;;;;;5.97;5.78;;;;;;;-145.48;100.00;64539.38;6283906;28;20045;-95
2024/01/16 07:03:04;;;;;;;6.50;6.20;;;;;;;-145.48;100.00;64539.38;6287370;28;20722;-94
2024/01/16 07:06:06;;;;;;;5.40;5.20;;;;;;;-145.48;100.00;64539.38;6288011;28;20040;-95
2024/01/16 07:09:10;;;;;;;5.60;5.40;;;;;;;-145.48;100.00;64539.38;6273078;28;20131;-95
2024/01/16 07:12:13;;;;;;;5.30;5.10;;;;;;;-145.48;100.00;64539.38;6288182;28;20431;-94
2024/01/16 07:15:16;;;;;;;6.13;5.93;;;;;;;-145.48;100.00;64539.38;6270532;28;20168;-94
2024/01/16 07:18:18;;;;;;;5.25;5.13;;;;;;;-145.48;100.00;64539.38;6289823;28;20673;-94
2024/01/16 07:21:23;;;;;;;5.75;5.55;;;;;;;-145.48;100.00;64539.38;6291474;28;20540;-94
2024/01/16 07:24:25;;;;;;;5.75;5.55;;;;;;;-145.48;100.00;64539.38;6291966;28;20049;-95
2024/01/16 07:27:27;;;;;;;6.75;6.45;;;;;;;-145.48;100.00;64539.38;6292036;28;20517;-94
2024/01/16 07:30:29;;;;;;;5.85;5.55;;;;;;;-145.48;100.00;64539.38;6289274;28;20574;-94
2024/01/16 07:33:31;;;;;;;6.00;5.80;;;;;;;-145.48;100.00;64539.38;6292779;28;20498;-94
2024/01/16 07:36:34;;;;;;;7.25;6.82;;;;;;;-145.48;100.00;64539.38;6291918;28;20414;-93
2024/01/16 07:39:36;;;;;;;6.20;5.80;;;;;;;-145.48;100.00;64539.38;6291496;28;20036;-94
2024/01/16 07:42:38;;;;;;;7.78;7.38;;;;;;;-145.48;100.00;64539.38;6290466;28;20036;-94
2024/01/16 07:45:39;;;;;;;6.38;5.95;;;;;;;-145.48;100.00;64539.38;6291250;28;20055;-94
2024/01/16 07:48:45;;;;;;;6.03;5.72;;;;;;;-145.48;100.00;64539.38;6285316;28;20056;-94
2024/01/16 07:51:47;;;;;;;7.78;7.38;;;;;;;-145.48;100.00;64539.38;6288218;28;20048;-93
2024/01/16 07:54:54;;;;;;;5.38;5.18;;;;;;;-145.48;100.00;64539.38;6289616;28;20566;-94
2024/01/16 07:57:56;;;;;;;5.97;5.78;;;;;;;-145.48;100.00;64539.38;6289345;28;20426;-93
2024/01/16 08:00:58;;;;;;;6.65;6.35;;;;;;;-145.48;100.00;64539.38;6279510;28;20037;-93
2024/01/16 08:04:00;;;;;;;6.90;6.63;;;;;;;-145.48;100.00;64539.38;6286089;28;20048;-88
2024/01/16 08:07:02;;;;;;;6.22;5.72;;;;;;;-145.48;100.00;64539.38;6286941;28;20044;-88
2024/01/16 08:10:05;;;;;;;5.65;5.43;;;;;;;-145.48;100.00;64539.38;6277495;28;20411;-88
2024/01/16 08:13:07;;;;;;;7.28;6.97;;;;;;;-145.48;100.00;64539.38;6287471;28;20047;-88
2024/01/16 08:16:08;;;;;;;5.82;5.63;;;;;;;-145.48;100.00;64539.38;6284184;28;20390;-88
2024/01/16 08:19:14;;;;;;;6.70;6.40;;;;;;;-145.48;100.00;64539.38;6275795;28;20379;-88
2024/01/16 08:22:16;;;;;;;5.55;5.35;;;;;;;-145.48;100.00;64539.38;6284973;28;20045;-88
2024/01/16 08:25:25;;;;;;;6.20;5.95;;;;;;;-145.48;100.00;64539.38;6291319;28;20045;-88
2024/01/16 08:28:27;;;;;;;7.72;6.63;;;;;;;-145.48;100.00;64539.38;6283774;28;20071;-88
2024/01/16 08:31:29;;;;;;;19.02;6.40;;;;;;;-145.48;100.00;64539.38;6280981;28;20041;-88
2024/01/16 08:34:31;;;;;;;6.13;5.93;;;;;;;-145.48;100.00;64539.38;6282997;28;20051;-88
2024/01/16 08:37:34;;;;;;;7.35;6.85;;;;;;;-145.48;100.00;64539.38;6288666;28;20041;-89
2024/01/16 08:40:36;;;;;;;8.35;7.85;;;;;;;-145.48;100.00;64539.38;6284104;28;20044;-89
2024/01/16 08:43:38;;;;;;;6.80;6.50;;;;;;;-145.48;100.00;64539.38;6288806;28;20590;-88
2024/01/16 08:46:40;;;;;;;6.50;6.15;;;;;;;-145.48;100.00;64539.38;6280311;28;20072;-88
2024/01/16 08:49:43;;;;;;;5.78;5.57;;;;;;;-145.48;100.00;64539.38;6285173;28;20511;-89
2024/01/16 08:52:45;;;;;;;7.35;6.30;;;;;;;-145.48;100.00;64539.38;6284628;28;20114;-88
2024/01/16 08:55:47;;;;;;;7.03;6.63;;;;;;;-145.48;100.00;64539.38;6283850;28;20105;-88
2024/01/16 08:58:49;;;;;;;8.27;6.38;;;;;;;-145.48;100.00;64539.38;6281313;28;20433;-88
2024/01/16 09:01:51;;;;;;;6.78;6.47;;;;;;;-145.48;100.00;64539.38;6282527;28;20040;-88
2024/01/16 09:04:53;;;;;;;6.38;6.10;;;;;;;-145.48;100.00;64539.38;6286926;28;20052;-88
2024/01/16 09:07:55;;;;;;;6.18;5.97;;;;;;;-145.48;100.00;64539.38;6284359;28;20052;-88
2024/01/16 09:10:57;;;;;;;6.70;6.38;;;;;;;-145.48;100.00;64539.38;6282275;28;20431;-88
2024/01/16 09:14:00;;;;;;;6.97;6.68;;;;;;;-145.48;100.00;64539.38;6281993;28;20045;-88
2024/01/16 09:17:05;;;;;;;6.38;6.07;;;;;;;-145.48;100.00;64539.38;6284910;28;20049;-89
2024/01/16 09:20:08;;;;;;;7.10;6.80;;;;;;;-145.48;100.00;64539.38;6287054;28;20587;-88
2024/01/16 09:23:10;;;;;;;6.10;5.90;;;;;;;-145.48;100.00;64539.38;6281298;28;20407;-88
2024/01/16 09:26:12;;;;;;;6.88;6.45;;;;;;;-145.48;100.00;64539.38;6294436;28;20071;-88
2024/01/16 09:29:14;;;;;;;5.93;5.72;;;;;;;-145.48;100.00;64539.38;6270560;28;20033;-88
2024/01/16 09:32:16;;;;;;;11.85;6.13;;;;;;;-145.48;100.00;64539.38;6275401;28;20438;-88
2024/01/16 09:35:18;;;;;;;6.28;5.97;;;;;;;-145.48;100.00;64539.38;6273557;28;20036;-88
2024/01/16 09:38:20;;;;;;;6.03;5.82;;;;;;;-145.48;100.00;64539.38;6272688;28;20538;-88
2024/01/16 09:41:24;;;;;;;6.75;6.45;;;;;;;-145.48;100.00;64539.38;6279583;28;20112;-88
2024/01/16 09:44:27;;;;;;;7.80;7.05;;;;;;;-145.48;100.00;64539.38;6274037;28;20410;-88
2024/01/16 09:47:37;;;;;;;6.65;6.35;;;;;;;-145.48;100.00;64539.38;6275364;28;20524;-88
2024/01/16 09:50:39;;;;;;;6.68;6.35;;;;;;;-145.48;100.00;64539.38;6283019;28;20075;-88
2024/01/16 09:53:43;;;;;;;6.10;5.90;;;;;;;-145.48;100.00;64539.38;6277508;28;20451;-88
2024/01/16 09:56:50;;;;;;;5.70;5.50;;;;;;;-145.48;100.00;64539.38;6276382;28;20055;-88
2024/01/16 09:59:52;;;;;;;6.45;6.20;;;;;;;-145.48;100.00;64539.38;6278661;28;20044;-88
2024/01/16 10:02:59;;;;;;;6.55;6.25;;;;;;;-145.48;100.00;64539.38;6279030;28;20039;-88
2024/01/16 10:06:05;;;;;;;7.03;6.82;;;;;;;-145.48;100.00;64539.38;6284745;28;20044;-88
2024/01/16 10:09:08;;;;;;;7.95;7.45;;;;;;;-145.48;100.00;64539.38;6271174;28;20025;-88
2024/01/16 10:12:10;;;;;;;6.78;6.47;;;;;;;-145.48;100.00;64539.38;6278761;28;20052;-87
2024/01/16 10:15:16;;;;;;;6.57;6.28;;;;;;;-145.48;100.00;64539.38;6284923;28;20530;-87
2024/01/16 10:18:29;;;;;;;6.43;6.15;;;;;;;-145.48;100.00;64539.38;6284222;28;20048;-87
2024/01/16 10:21:32;;;;;;;6.18;5.97;;;;;;;-145.48;100.00;64539.38;6288329;28;20033;-87
2024/01/16 10:24:35;;;;;;;6.18;5.97;;;;;;;-145.48;100.00;64539.38;6291445;28;20037;-87
2024/01/16 10:27:39;;;;;;;6.80;6.53;;;;;;;-145.48;100.00;64539.38;6278463;28;20044;-87
2024/01/16 10:30:41;;;;;;;6.55;6.25;;;;;;;-145.48;100.00;64539.38;6285199;28;20161;-88
2024/01/16 10:33:43;;;;;;;6.75;6.25;;;;;;;-145.48;100.00;64539.38;6290876;28;20047;-87
2024/01/16 10:36:45;;;;;;;5.82;5.57;;;;;;;-145.48;100.00;64539.38;6282916;28;20235;-87
2024/01/16 10:39:50;;;;;;;6.07;5.78;;;;;;;-145.48;100.00;64539.38;6284500;28;20067;-88
2024/01/16 10:43:05;;;;;;;5.80;5.60;;;;;;;-145.48;100.00;64539.38;6284204;28;20051;-88
2024/01/16 10:46:14;;;;;;;6.15;5.95;;;;;;;-145.48;100.00;64539.38;6274355;28;20473;-87
2024/01/16 10:49:17;;;;;;;6.50;6.15;;;;;;;-145.48;100.00;64539.38;6282158;28;20033;-87
2024/01/16 10:52:22;;;;;;;6.18;5.97;;;;;;;-145.48;100.00;64539.38;6280860;28;20079;-87
2024/01/16 10:55:24;;;;;;;10.80;6.18;;;;;;;-145.48;100.00;64539.38;6271958;28;20065;-87
2024/01/16 10:58:28;;;;;;;7.22;6.93;;;;;;;-145.48;100.00;64539.38;6277333;28;20119;-87
2024/01/16 11:01:31;;;;;;;5.55;5.35;;;;;;;-145.48;100.00;64539.38;6277782;28;20218;-88
2024/01/16 11:04:34;;;;;;;7.80;7.30;;;;;;;-145.48;100.00;64539.38;6286831;28;20036;-87
2024/01/16 11:07:37;;;;;;;5.97;5.68;;;;;;;-145.48;100.00;64539.38;6287622;28;20040;-88
2024/01/16 11:10:39;;;;;;;6.93;6.63;;;;;;;-145.48;100.00;64539.38;6277330;28;20041;-88
2024/01/16 11:13:44;;;;;;;6.90;6.60;;;;;;;-145.48;100.00;64539.38;6282567;28;20033;-88
2024/01/16 11:16:48;;;;;;;5.78;5.57;;;;;;;-145.48;100.00;64539.38;6288095;28;20044;-87
2024/01/16 11:19:49;;;;;;;5.70;5.50;;;;;;;-145.48;100.00;64539.38;6285621;28;20041;-88
2024/01/16 11:23:13;;;;;;;5.75;5.55;;;;;;;-145.48;100.00;64539.38;6273020;28;20040;-88
2024/01/16 11:26:36;;;;;;;5.88;5.68;;;;;;;-145.48;100.00;64539.38;6279743;28;20043;-88
2024/01/16 11:29:38;;;;;;;6.63;6.15;;;;;;;-145.48;100.00;64539.38;6301303;28;20117;-88
2024/01/16 11:32:41;;;;;;;7.07;6.60;;;;;;;-145.48;100.00;64539.38;6284387;28;20702;-87
2024/01/16 11:35:43;;;;;;;7.03;6.65;;;;;;;-145.48;100.00;64539.38;6287372;28;20485;-86
2024/01/16 11:38:52;;;;;;;7.32;7.03;;;;;;;-145.48;100.00;64539.38;6273049;28;20442;-86
2024/01/16 11:42:02;;;;;;;6.68;6.38;;;;;;;-145.48;100.00;64539.38;6278528;28;20557;-88
2024/01/16 11:45:07;;;;;;;;;;;;;;;-145.48;100.00;64539.38;6272422;28;20044;-87
2024/01/16 11:48:10;;;;;;;5.95;5.75;;;;;;;-145.48;100.00;64539.38;6282989;28;19920;-88
2024/01/16 11:51:24;;;;;;;6.25;5.95;;;;;;;-145.48;100.00;64539.38;6275940;28;20394;-88
2024/01/16 11:54:28;;;;;;;6.35;6.15;;;;;;;-145.48;100.00;64539.38;6273133;28;20106;-87
2024/01/16 11:58:08;;;;;;;6.15;5.75;;;;;;;-145.48;100.00;64539.38;6279661;28;20044;-88
2024/01/16 12:01:12;;;;;;;5.53;5.32;;;;;;;-145.48;100.00;64539.38;6282192;28;20048;-88
2024/01/16 12:04:14;;;;;;;6.65;6.35;;;;;;;-145.48;100.00;64539.38;6287865;28;20120;-88
2024/01/16 12:07:17;;;;;;;6.78;6.47;;;;;;;-145.48;100.00;64539.38;6281881;28;20033;-88
2024/01/16 12:10:22;;;;;;;12.90;5.88;;;;;;;-145.48;100.00;64539.38;6287749;28;20072;-90
2024/01/16 12:13:24;;;;;;;5.72;5.47;;;;;;;-145.48;100.00;64539.38;6289750;28;20186;-90
2024/01/16 12:16:27;;;;;;;6.60;6.30;;;;;;;-145.48;100.00;64539.38;6284031;28;20044;-90
2024/01/16 12:19:29;;;;;;;6.72;6.43;;;;;;;-145.48;100.00;64539.38;6287825;28;20063;-89
2024/01/16 12:22:31;;;;;;;6.25;5.93;;;;;;;-145.48;100.00;64539.38;6274552;28;20046;-91
2024/01/16 12:25:34;;;;;;;6.72;6.32;;;;;;;-145.48;100.00;64539.38;6288284;28;20044;-91
2024/01/16 12:28:57;;;;;;;6.05;5.85;;;;;;;-145.48;100.00;64539.38;6280051;28;20438;-90
2024/01/16 12:32:08;;;;;;;8.55;7.28;;;;;;;-145.48;100.00;64539.38;6282324;28;20045;-90
2024/01/16 12:35:10;;;;;;;6.88;6.57;;;;;;;-145.48;100.00;64539.38;6286847;28;20041;-90
2024/01/16 12:38:13;;;;;;;7.68;7.35;;;;;;;-145.48;100.00;64539.38;6287930;28;20790;-90
2024/01/16 12:41:15;;;;;;;6.63;6.32;;;;;;;-145.48;100.00;64539.38;6289474;28;20446;-90
2024/01/16 12:44:26;;;;;;;6.47;6.28;;;;;;;-145.48;100.00;64539.38;6284776;28;20041;-90
2024/01/16 12:47:28;;;;;;;6.28;6.03;;;;;;;-145.48;100.00;64539.38;6282603;28;20036;-91
2024/01/16 12:50:31;;;;;;;6.88;6.57;;;;;;;-145.48;100.00;64539.38;6286379;28;20608;-91
2024/01/16 12:53:36;;;;;;;7.95;7.55;;;;;;;-145.48;100.00;64539.38;6285465;28;20119;-91
2024/01/16 12:56:39;;;;;;;7.40;7.07;;;;;;;-145.48;100.00;64539.38;6281674;28;20120;-90
2024/01/16 12:59:41;;;;;;;7.93;7.35;;;;;;;-145.48;100.00;64539.38;6288041;28;20068;-91
2024/01/16 13:02:49;;;;;;;7.40;7.10;;;;;;;-145.48;100.00;64539.38;6278270;28;20072;-90
2024/01/16 13:06:04;;;;;;;8.18;7.78;;;;;;;-145.48;100.00;64539.38;6275458;28;20045;-90
2024/01/16 13:09:10;;;;;;;8.73;8.02;;;;;;;-145.48;100.00;64539.38;6272626;28;20052;-90
2024/01/16 13:12:20;;;;;;;7.78;7.28;;;;;;;-145.48;100.00;64539.38;6267231;28;20090;-91
2024/01/16 13:15:22;;;;;;;7.40;6.80;;;;;;;-145.48;100.00;64539.38;6282057;28;20040;-92
2024/01/16 13:18:27;;;;;;;6.40;6.13;;;;;;;-145.48;100.00;64539.38;6288583;28;20036;-91
2024/01/16 13:21:29;;;;;;;7.30;7.00;;;;;;;-145.48;100.00;64539.38;6293437;28;20043;-91
2024/01/16 13:24:31;;;;;;;6.93;6.60;;;;;;;-145.48;100.00;64539.38;6282168;28;20524;-91
2024/01/16 13:27:33;;;;;;;9.25;7.75;;;;;;;-145.48;100.00;64539.38;6282768;28;20036;-91
2024/01/16 13:30:34;;;;;;;8.27;7.63;;;;;;;-145.48;100.00;64539.38;6286765;28;20139;-92
2024/01/16 13:33:48;;;;;;;8.20;7.80;;;;;;;-145.48;100.00;64539.38;6276191;28;20040;-91
2024/01/16 13:36:52;;;;;;;10.52;8.73;;;;;;;-145.48;100.00;64539.38;6279368;28;20428;-92
2024/01/16 13:40:15;;;;;;;8.82;7.90;;;;;;;-145.48;100.00;64539.38;6280477;28;20048;-92
2024/01/16 13:43:18;;;;;;;8.23;7.78;;;;;;;-145.48;100.00;64539.38;6286282;28;20143;-92
2024/01/16 13:46:22;;;;;;;7.57;7.18;;;;;;;-145.48;100.00;64539.38;6288215;28;20590;-92
2024/01/16 13:49:44;;;;;;;7.43;7.13;;;;;;;-145.48;100.00;64539.38;6285266;28;20532;-93
2024/01/16 13:52:47;;;;;;;9.15;7.65;;;;;;;-145.48;100.00;64539.38;6280714;28;20045;-93
2024/01/16 13:55:49;;;;;;;13.32;8.15;;;;;;;-145.48;100.00;64539.38;6278432;28;20033;-92